Etusivu
METAR-TAF:

METAR-TAF

Lentoasemat :

Emporia Municipal Airport

Emporia, Kansas, Yhdysvallat

Leveyspiiri: 38-19-44N, Pituuspiiri: 096-11-38W, korkeus merenpinnasta: 367 m

Tämänhetkinen sää

Tämä raportti tehtiin 24 minuuttia sitten, kello 12.53 UTC
Tuuli 11 kn idästä
Lämpötila 22°C
Kosteus 88%
Ilmanpaine 1019 hPa
Näkyvyys: 16.1 km
Muutamia pilviä 3500 ft:n korkeudessa
Pilvistä 11000 ft:n korkeudessa

METAR: KEMP 191253Z AUTO 08011KT 10SM FEW035 OVC110 22/20 A3010 RMK AO2 SLP183 T02170200

Aika: 08:17 (13:17 UTC)


TAF: puuttuu

Säähavainnot ja -ennusteet yli 4000 lentoasemalta (METAR- ja TAF-raportit).

Käytössä olevat sääasemat on merkitty karttaan keltaisilla ja punaisilla pisteillä.

Aseta hiiri pisteen päälle nähdäksesi sääaseman nimen.

Klikkaa sitten nähdäksesi säähavainnot ja -ennusteet.

Kartan vaihtaminen: klikkaa mustalla rastilla varustettuja vihreitä pisteitä, niin voit zoomata sisään; viivalla varustettua vihreää pistettä, niin voit zoomata ulos tai vihreitä nuolia, niin pääset viereisille kartoille.


METAR-TAF: